Time;durP1;ratioP1;P1;durP2;ratioP2;P2;SDS_P1;SDS_P2;PMS_P1;PMS_P2;Temp;Humidity;BMP_temperature;BMP_pressure;BME280_temperature;BME280_humidity;BME280_pressure;Samples;Min_cycle;Max_cycle;Signal;HPM_P1;HPM_P2
2024/04/04 13:57:33;;;;;;;6.33;0.80;;;16.80;99.90;;;;;;5721534;23;20325;-73
2024/04/04 14:00:02;;;;;;;5.78;1.27;;;17.10;99.90;;;;;;4898351;29;20203;-73
2024/04/04 14:02:30;;;;;;;4.20;1.00;;;17.30;99.90;;;;;;4897211;29;20218;-72
2024/04/04 14:04:56;;;;;;;5.20;0.73;;;17.40;99.90;;;;;;4898583;29;20243;-75
2024/04/04 14:07:23;;;;;;;3.10;1.00;;;17.40;99.90;;;;;;4886770;29;20270;-72
2024/04/04 14:09:49;;;;;;;4.38;0.90;;;17.40;99.90;;;;;;4882204;29;20254;-73
2024/04/04 14:12:16;;;;;;;4.70;0.80;;;17.50;99.90;;;;;;4897991;29;20273;-73
2024/04/04 14:14:44;;;;;;;5.25;0.85;;;17.80;99.90;;;;;;4890516;29;20226;-74
2024/04/04 14:17:11;;;;;;;5.90;1.23;;;18.00;99.90;;;;;;4887689;29;20749;-73
2024/04/04 14:19:36;;;;;;;6.45;1.05;;;17.80;99.90;;;;;;4882843;29;20297;-74
2024/04/04 14:22:04;;;;;;;3.90;0.80;;;17.40;99.90;;;;;;4897711;29;20293;-72
2024/04/04 14:24:31;;;;;;;5.23;0.93;;;17.00;99.90;;;;;;4879190;29;20286;-74
2024/04/04 14:26:58;;;;;;;5.78;1.02;;;16.70;99.90;;;;;;4889084;29;20222;-73
2024/04/04 14:29:24;;;;;;;6.40;0.95;;;16.80;99.90;;;;;;4880295;29;20247;-75
2024/04/04 14:31:55;;;;;;;5.68;1.13;;;17.00;99.90;;;;;;4896604;29;20234;-74
2024/04/04 14:34:21;;;;;;;5.00;0.98;;;17.10;99.90;;;;;;4899028;29;20753;-76
2024/04/04 14:36:49;;;;;;;6.95;0.93;;;17.10;99.90;;;;;;4891775;29;20575;-76
2024/04/04 14:39:15;;;;;;;6.80;1.27;;;16.80;99.90;;;;;;4881892;29;20286;-74
2024/04/04 14:41:42;;;;;;;6.33;0.90;;;16.80;99.90;;;;;;4880245;29;20314;-74
2024/04/04 14:44:08;;;;;;;6.40;0.88;;;16.70;99.90;;;;;;4880220;29;20242;-74
2024/04/04 14:46:35;;;;;;;5.47;1.25;;;17.00;99.90;;;;;;4880555;29;20217;-74
2024/04/04 14:49:03;;;;;;;8.98;2.83;;;17.00;99.90;;;;;;4880000;29;20323;-74
2024/04/04 14:51:30;;;;;;;5.88;1.00;;;17.00;99.90;;;;;;4880281;29;20643;-74
2024/04/04 14:53:56;;;;;;;14.98;1.77;;;16.90;99.90;;;;;;4880325;29;20215;-74
2024/04/04 14:56:24;;;;;;;4.82;1.10;;;16.90;99.90;;;;;;4880149;29;20218;-74
2024/04/04 14:58:50;;;;;;;5.85;1.10;;;17.00;99.90;;;;;;4879895;29;20738;-74
2024/04/04 15:01:17;;;;;;;3.90;1.00;;;17.10;99.90;;;;;;4880140;29;20239;-73
2024/04/04 15:03:47;;;;;;;4.10;1.13;;;17.10;99.90;;;;;;4880357;29;20290;-75
2024/04/04 15:06:15;;;;;;;6.83;1.00;;;17.00;99.90;;;;;;4880271;29;20215;-73
2024/04/04 15:08:44;;;;;;;6.17;1.03;;;16.70;99.90;;;;;;4880259;29;20295;-74
2024/04/04 15:11:11;;;;;;;4.32;0.80;;;16.70;99.90;;;;;;4880242;29;20211;-74
2024/04/04 15:13:37;;;;;;;4.53;0.93;;;16.70;99.90;;;;;;4879868;29;20215;-73
2024/04/04 15:16:04;;;;;;;9.00;1.40;;;16.60;99.90;;;;;;4879909;29;20263;-73
2024/04/04 15:18:30;;;;;;;5.67;1.13;;;16.60;99.90;;;;;;4879851;29;20656;-73
2024/04/04 15:20:57;;;;;;;11.43;1.30;;;16.60;99.90;;;;;;4880370;29;20215;-73
2024/04/04 15:23:24;;;;;;;5.83;1.00;;;16.70;99.90;;;;;;4880028;29;20223;-72
2024/04/04 15:25:51;;;;;;;3.57;1.10;;;16.70;99.90;;;;;;4879584;29;20218;-73
2024/04/04 15:28:18;;;;;;;5.97;1.10;;;16.70;99.90;;;;;;4879794;29;20235;-73
2024/04/04 15:30:44;;;;;;;5.28;0.98;;;16.60;99.90;;;;;;4879774;29;20211;-73
2024/04/04 15:33:10;;;;;;;8.23;1.00;;;16.30;99.90;;;;;;4879633;29;20270;-73
2024/04/04 15:35:38;;;;;;;8.30;1.30;;;16.30;99.90;;;;;;4879858;29;20697;-73
2024/04/04 15:38:04;;;;;;;7.63;1.13;;;16.40;99.90;;;;;;4879717;29;20279;-74
2024/04/04 15:40:32;;;;;;;8.77;1.70;;;16.60;99.90;;;;;;4879850;29;20679;-73
2024/04/04 15:42:59;;;;;;;6.23;1.03;;;16.50;99.90;;;;;;4879740;29;20686;-74
2024/04/04 15:45:26;;;;;;;9.10;1.30;;;16.50;99.90;;;;;;4879719;29;20289;-74
2024/04/04 15:47:52;;;;;;;8.97;1.40;;;16.30;99.90;;;;;;4879446;29;20235;-75
2024/04/04 15:50:19;;;;;;;4.57;1.00;;;16.10;99.90;;;;;;4879401;29;20699;-74
2024/04/04 15:52:45;;;;;;;6.30;0.73;;;16.00;99.90;;;;;;4879235;29;20274;-73
2024/04/04 15:55:12;;;;;;;7.80;1.80;;;15.90;99.90;;;;;;4879422;29;20258;-74
2024/04/04 15:57:39;;;;;;;5.23;0.90;;;15.90;99.90;;;;;;4879219;29;20243;-74
2024/04/04 16:00:10;;;;;;;6.53;0.87;;;16.00;99.90;;;;;;4879387;29;20207;-73
2024/04/04 16:02:36;;;;;;;6.47;1.03;;;16.00;99.90;;;;;;4879067;29;20295;-74
2024/04/04 16:05:03;;;;;;;6.27;1.13;;;16.00;99.90;;;;;;4878853;29;20215;-74
2024/04/04 16:07:31;;;;;;;6.03;1.17;;;15.90;99.90;;;;;;4878987;29;20236;-74
2024/04/04 16:09:58;;;;;;;8.70;1.40;;;16.10;99.90;;;;;;4879065;29;20211;-73
2024/04/04 16:12:24;;;;;;;5.27;0.90;;;16.20;99.90;;;;;;4879047;29;20239;-74
2024/04/04 16:14:52;;;;;;;10.00;1.37;;;16.30;99.90;;;;;;4879144;29;20574;-73
2024/04/04 16:17:18;;;;;;;7.63;1.57;;;16.30;99.90;;;;;;4878962;29;20337;-74
2024/04/04 16:19:45;;;;;;;6.17;1.53;;;16.20;99.90;;;;;;4879240;29;20247;-74
2024/04/04 16:22:11;;;;;;;4.70;1.10;;;16.20;99.90;;;;;;4879027;29;20219;-73
2024/04/04 16:24:38;;;;;;;5.50;0.90;;;16.20;99.90;;;;;;4878870;29;20300;-74
2024/04/04 16:27:06;;;;;;;9.70;1.33;;;16.10;99.90;;;;;;4879892;29;20243;-73
2024/04/04 16:29:32;;;;;;;6.40;1.17;;;16.10;99.90;;;;;;4878533;29;20685;-75
2024/04/04 16:32:00;;;;;;;6.57;1.20;;;16.30;99.90;;;;;;4878768;29;20239;-74
2024/04/04 16:34:26;;;;;;;7.47;1.43;;;16.30;99.90;;;;;;4878594;29;20739;-73
2024/04/04 16:36:54;;;;;;;7.47;1.20;;;16.30;99.90;;;;;;4878214;29;20211;-74
2024/04/04 16:39:20;;;;;;;5.00;1.27;;;16.20;99.90;;;;;;4881962;29;20207;-74
2024/04/04 16:41:48;;;;;;;7.50;1.20;;;16.20;99.90;;;;;;4882497;29;20615;-75
2024/04/04 16:44:14;;;;;;;6.83;1.07;;;16.20;99.90;;;;;;4882749;29;20297;-72
2024/04/04 16:46:40;;;;;;;7.00;1.50;;;16.20;99.90;;;;;;4882400;29;20302;-73
2024/04/04 16:49:08;;;;;;;4.00;1.17;;;16.20;99.90;;;;;;4882232;29;20661;-74
2024/04/04 16:51:35;;;;;;;5.73;0.93;;;16.30;99.90;;;;;;4882369;29;20239;-73
2024/04/04 16:54:04;;;;;;;4.73;1.37;;;16.30;99.90;;;;;;4884656;29;20657;-74
2024/04/04 16:56:30;;;;;;;5.27;1.10;;;16.40;99.90;;;;;;4900880;29;20211;-76
2024/04/04 16:58:56;;;;;;;7.37;1.37;;;16.30;99.90;;;;;;4900675;29;20321;-74
2024/04/04 17:01:23;;;;;;;6.17;1.00;;;16.30;99.90;;;;;;4900878;29;20294;-75
2024/04/04 17:03:49;;;;;;;5.17;1.10;;;16.20;99.90;;;;;;4895321;29;20694;-76
2024/04/04 17:06:18;;;;;;;6.97;1.10;;;16.10;99.90;;;;;;4882192;29;20222;-76
2024/04/04 17:08:44;;;;;;;10.13;1.10;;;16.10;99.90;;;;;;4886819;29;20227;-78
2024/04/04 17:11:11;;;;;;;8.57;1.10;;;16.10;99.90;;;;;;4900700;29;20674;-75
2024/04/04 17:13:37;;;;;;;5.17;1.00;;;16.10;99.90;;;;;;4900358;29;20702;-77
2024/04/04 17:16:05;;;;;;;7.73;0.97;;;16.10;99.90;;;;;;4900771;29;20218;-76
2024/04/04 17:18:31;;;;;;;10.90;2.60;;;16.00;99.90;;;;;;4900497;29;20230;-74
2024/04/04 17:21:03;;;;;;;14.57;1.43;;;15.70;99.90;;;;;;4900692;29;20684;-75
2024/04/04 17:23:30;;;;;;;6.00;0.90;;;15.60;99.90;;;;;;4900264;29;20635;-83
2024/04/04 17:26:02;;;;;;;5.13;1.10;;;15.50;99.90;;;;;;4901771;29;20221;-77
2024/04/04 17:28:30;;;;;;;7.37;1.13;;;15.40;99.90;;;;;;4900294;29;20230;-75
2024/04/04 17:30:58;;;;;;;4.23;0.73;;;15.40;99.90;;;;;;4900438;29;20210;-73
2024/04/04 17:33:24;;;;;;;5.03;0.80;;;15.40;99.90;;;;;;4900524;29;20294;-73
2024/04/04 17:35:51;;;;;;;3.47;0.80;;;15.40;99.90;;;;;;4900777;29;20215;-75
2024/04/04 17:38:17;;;;;;;4.57;0.80;;;15.30;99.90;;;;;;4900893;29;20269;-73
2024/04/04 17:40:45;;;;;;;6.40;0.97;;;15.20;99.90;;;;;;4900625;29;20561;-74
2024/04/04 17:43:11;;;;;;;5.83;1.00;;;15.20;99.90;;;;;;4900546;29;20670;-74
2024/04/04 17:45:38;;;;;;;7.33;1.17;;;15.20;99.90;;;;;;4900369;29;20214;-74
2024/04/04 17:48:05;;;;;;;4.00;0.90;;;15.20;99.90;;;;;;4900480;29;20777;-73
2024/04/04 17:50:32;;;;;;;6.07;1.00;;;15.10;99.90;;;;;;4900222;29;20214;-74
2024/04/04 17:52:58;;;;;;;6.23;0.83;;;15.20;99.90;;;;;;4900159;29;20626;-74
2024/04/04 17:55:25;;;;;;;6.73;1.17;;;15.20;99.90;;;;;;4900436;29;20221;-74
2024/04/04 17:57:52;;;;;;;4.83;1.23;;;15.20;99.90;;;;;;4900017;29;20234;-74
2024/04/04 18:00:19;;;;;;;6.10;1.43;;;15.10;99.90;;;;;;4900172;29;20233;-75
2024/04/04 18:02:45;;;;;;;5.03;1.00;;;15.00;99.90;;;;;;4899974;29;20211;-75
2024/04/04 18:05:12;;;;;;;6.07;0.97;;;15.00;99.90;;;;;;4899924;29;20207;-74
2024/04/04 18:07:38;;;;;;;13.17;2.03;;;14.90;99.90;;;;;;4900198;29;20273;-74
2024/04/04 18:10:06;;;;;;;6.77;1.20;;;14.90;99.90;;;;;;4899974;29;20211;-74
2024/04/04 18:12:33;;;;;;;5.97;1.37;;;14.80;99.90;;;;;;4899733;29;20273;-76
2024/04/04 18:15:01;;;;;;;2.80;0.90;;;14.70;99.90;;;;;;4900217;29;20221;-75
2024/04/04 18:17:29;;;;;;;5.13;1.20;;;14.70;99.90;;;;;;4899682;29;20262;-74
2024/04/04 18:19:55;;;;;;;9.47;1.27;;;14.60;99.90;;;;;;4899785;29;20218;-73
2024/04/04 18:22:22;;;;;;;8.03;0.90;;;14.50;99.90;;;;;;4899752;29;20218;-75
2024/04/04 18:24:48;;;;;;;6.67;0.83;;;14.50;99.90;;;;;;4899807;29;20740;-75
2024/04/04 18:27:15;;;;;;;6.57;1.20;;;14.40;99.90;;;;;;4899373;29;20234;-76
2024/04/04 18:29:41;;;;;;;6.73;1.10;;;14.40;99.90;;;;;;4899616;29;20241;-76
2024/04/04 18:32:10;;;;;;;5.60;0.93;;;14.40;99.90;;;;;;4899441;29;20282;-75
2024/04/04 18:34:36;;;;;;;7.70;1.20;;;14.30;99.90;;;;;;4899531;29;20254;-75
2024/04/04 18:37:03;;;;;;;3.73;0.40;;;14.20;99.90;;;;;;4911247;29;20211;-73
2024/04/04 18:39:29;;;;;;;5.90;0.90;;;14.30;99.90;;;;;;4912934;29;20949;-76
2024/04/04 18:41:57;;;;;;;8.67;1.20;;;14.30;99.90;;;;;;4909260;29;20202;-76
2024/04/04 18:44:23;;;;;;;6.53;1.00;;;14.30;99.90;;;;;;4899661;29;20214;-75
2024/04/04 18:46:50;;;;;;;6.10;0.73;;;14.20;99.90;;;;;;4899507;29;20221;-76
2024/04/04 18:49:18;;;;;;;10.50;1.40;;;14.10;99.90;;;;;;4899534;29;20245;-76
2024/04/04 18:51:45;;;;;;;8.33;1.23;;;14.00;99.90;;;;;;4899164;29;20218;-76
2024/04/04 18:54:10;;;;;;;9.67;1.27;;;13.90;99.90;;;;;;4899542;29;20238;-75
2024/04/04 18:56:37;;;;;;;6.67;1.20;;;13.90;99.90;;;;;;4899380;29;20266;-76
2024/04/04 18:59:04;;;;;;;7.83;1.27;;;13.80;99.90;;;;;;4898815;29;20280;-74
2024/04/04 19:01:36;;;;;;;6.30;0.77;;;13.80;99.90;;;;;;4898409;29;20206;-75
2024/04/04 19:04:03;;;;;;;5.97;0.90;;;13.80;99.90;;;;;;4899083;29;20222;-76
2024/04/04 19:06:32;;;;;;;5.27;0.97;;;13.70;99.90;;;;;;4898910;29;20224;-75
2024/04/04 19:09:00;;;;;;;5.80;1.30;;;13.80;99.90;;;;;;4898736;29;20230;-74
2024/04/04 19:11:27;;;;;;;6.23;1.37;;;13.80;99.90;;;;;;4898810;29;20219;-74
2024/04/04 19:13:53;;;;;;;5.20;1.20;;;13.70;99.90;;;;;;4898768;29;20266;-75
2024/04/04 19:16:19;;;;;;;7.63;0.93;;;13.60;99.90;;;;;;4898991;29;20267;-73
2024/04/04 19:18:46;;;;;;;6.90;1.20;;;13.70;99.90;;;;;;4898802;29;20238;-76
2024/04/04 19:21:13;;;;;;;5.73;0.93;;;13.70;99.90;;;;;;4898830;29;20206;-73
2024/04/04 19:23:40;;;;;;;5.83;0.87;;;13.70;99.90;;;;;;4900072;29;20241;-75
2024/04/04 19:26:08;;;;;;;9.00;1.10;;;13.60;99.90;;;;;;4900644;29;20210;-75
2024/04/04 19:28:37;;;;;;;8.23;1.20;;;13.60;99.90;;;;;;4901061;29;20313;-76
2024/04/04 19:31:06;;;;;;;6.97;1.10;;;13.50;99.90;;;;;;4900763;29;20666;-74
2024/04/04 19:33:33;;;;;;;9.17;1.43;;;13.50;99.90;;;;;;4901784;29;20241;-75
2024/04/04 19:36:01;;;;;;;8.20;1.20;;;13.50;99.90;;;;;;4899654;29;20237;-73
2024/04/04 19:38:27;;;;;;;6.30;1.20;;;13.50;99.90;;;;;;4898404;29;20226;-75
2024/04/04 19:40:56;;;;;;;10.07;1.20;;;13.40;99.90;;;;;;4898587;29;20206;-76
2024/04/04 19:43:24;;;;;;;6.80;1.10;;;13.40;99.90;;;;;;4898762;29;20217;-75
2024/04/04 19:45:55;;;;;;;6.73;0.97;;;13.30;99.90;;;;;;4898429;29;20218;-74
2024/04/04 19:48:21;;;;;;;5.73;1.03;;;13.30;99.90;;;;;;4898257;29;20272;-76
2024/04/04 19:50:48;;;;;;;4.93;0.93;;;13.20;99.90;;;;;;4898451;29;20217;-75
2024/04/04 19:53:14;;;;;;;2.53;0.70;;;13.30;99.90;;;;;;4898042;29;20235;-76
2024/04/04 19:55:41;;;;;;;5.67;1.03;;;13.10;99.90;;;;;;4898278;29;20220;-75
2024/04/04 19:58:08;;;;;;;5.57;0.73;;;13.10;99.90;;;;;;4897846;29;20276;-76
2024/04/04 20:00:37;;;;;;;7.53;1.50;;;13.00;99.90;;;;;;4897960;29;20214;-75
